createdAt,value
2019-05-18T00:02:30.253Z,100.00
2019-05-18T00:04:59.607Z,100.00
2019-05-18T00:07:28.940Z,100.00
2019-05-18T00:09:58.279Z,100.00
2019-05-18T00:12:46.964Z,100.00
2019-05-18T00:15:16.436Z,100.00
2019-05-18T00:18:11.033Z,100.00
2019-05-18T00:20:52.472Z,100.00
2019-05-18T00:23:33.739Z,100.00
2019-05-18T00:26:15.378Z,100.00
2019-05-18T00:28:57.363Z,100.00
2019-05-18T00:31:26.697Z,100.00
2019-05-18T00:33:56.036Z,100.00
2019-05-18T00:36:37.938Z,100.00
2019-05-18T00:39:19.432Z,100.00
2019-05-18T00:41:48.784Z,100.00
2019-05-18T00:44:37.463Z,100.00
2019-05-18T00:47:18.452Z,100.00
2019-05-18T00:50:00.677Z,100.00
2019-05-18T00:52:42.399Z,100.00
2019-05-18T00:55:12.132Z,100.00
2019-05-18T00:57:41.477Z,100.00
2019-05-18T01:03:32.459Z,100.00
2019-05-18T01:06:01.824Z,100.00
2019-05-18T01:08:31.182Z,100.00
2019-05-18T01:11:20.076Z,100.00
2019-05-18T01:14:01.159Z,100.00
2019-05-18T01:16:30.490Z,100.00
2019-05-18T01:19:19.460Z,100.00
2019-05-18T01:21:48.801Z,100.00
2019-05-18T01:24:18.140Z,100.00
2019-05-18T01:26:59.552Z,100.00
2019-05-18T01:29:28.890Z,100.00
2019-05-18T01:32:17.353Z,100.00
2019-05-18T01:34:46.698Z,100.00
2019-05-18T01:37:16.035Z,100.00
2019-05-18T01:39:45.385Z,100.00
2019-05-18T01:42:14.749Z,100.00
2019-05-18T01:44:56.925Z,100.00
2019-05-18T01:47:38.021Z,100.00
2019-05-18T01:50:19.177Z,100.00
2019-05-18T01:53:00.315Z,100.00
2019-05-18T01:55:29.656Z,100.00
2019-05-18T01:58:10.861Z,100.00
2019-05-18T02:00:40.215Z,100.00
2019-05-18T02:03:09.561Z,100.00
2019-05-18T02:05:51.541Z,100.00
2019-05-18T02:08:32.997Z,100.00
2019-05-18T02:11:02.375Z,100.00
2019-05-18T02:13:32.017Z,100.00
2019-05-18T02:16:01.373Z,100.00
2019-05-18T02:18:50.053Z,100.00
2019-05-18T02:21:19.404Z,100.00
2019-05-18T02:24:08.094Z,100.00
2019-05-18T02:26:49.506Z,100.00
2019-05-18T02:29:30.965Z,100.00
2019-05-18T02:32:00.319Z,100.00
2019-05-18T02:34:48.998Z,100.00
2019-05-18T02:37:30.224Z,100.00
2019-05-18T02:40:11.322Z,100.00
2019-05-18T02:42:40.750Z,100.00
2019-05-18T02:45:29.473Z,100.00
2019-05-18T02:47:58.824Z,100.00
2019-05-18T02:50:47.253Z,100.00
2019-05-18T02:53:29.405Z,100.00
2019-05-18T02:55:58.715Z,100.00
2019-05-18T02:58:39.913Z,100.00
2019-05-18T03:01:09.242Z,100.00
2019-05-18T03:03:57.964Z,100.00
2019-05-18T03:06:39.065Z,100.00
2019-05-18T03:09:08.483Z,100.00
2019-05-18T03:11:37.885Z,100.00
2019-05-18T03:14:07.226Z,100.00
2019-05-18T03:16:55.916Z,100.00
2019-05-18T03:19:44.596Z,100.00
2019-05-18T03:22:31.455Z,100.00
2019-05-18T03:25:00.802Z,100.00
2019-05-18T03:27:30.146Z,100.00
2019-05-18T03:29:59.521Z,100.00
2019-05-18T03:32:28.850Z,100.00
2019-05-18T03:34:58.192Z,100.00
2019-05-18T03:37:27.542Z,100.00
2019-05-18T03:39:56.878Z,100.00
2019-05-18T03:42:26.226Z,100.00
2019-05-18T03:44:55.587Z,100.00
2019-05-18T03:47:24.910Z,100.00
2019-05-18T03:49:55.030Z,100.00
2019-05-18T03:52:24.654Z,100.00
2019-05-18T03:54:53.996Z,100.00
2019-05-18T03:57:23.348Z,100.00
2019-05-18T03:59:52.984Z,100.00
2019-05-18T04:02:22.329Z,100.00
2019-05-18T04:04:51.677Z,100.00
2019-05-18T04:07:21.016Z,100.00
2019-05-18T04:09:50.352Z,100.00
2019-05-18T04:12:19.706Z,100.00
2019-05-18T04:14:49.036Z,100.00
2019-05-18T04:17:18.441Z,100.00
2019-05-18T04:19:47.813Z,100.00
2019-05-18T04:22:17.294Z,100.00
2019-05-18T04:24:46.637Z,100.00
2019-05-18T04:27:16.030Z,100.00
2019-05-18T04:29:45.366Z,100.00
2019-05-18T04:32:14.731Z,100.00
2019-05-18T04:34:44.081Z,100.00
2019-05-18T04:37:14.402Z,100.00
2019-05-18T04:39:43.756Z,100.00
2019-05-18T04:42:13.453Z,100.00
2019-05-18T04:44:42.765Z,100.00
2019-05-18T04:47:12.126Z,100.00
2019-05-18T04:49:41.374Z,100.00
2019-05-18T04:52:10.727Z,100.00
2019-05-18T04:54:40.143Z,100.00
2019-05-18T04:57:09.733Z,100.00
2019-05-18T04:59:39.081Z,100.00
2019-05-18T05:02:08.434Z,100.00
2019-05-18T05:04:37.756Z,100.00
2019-05-18T05:07:07.109Z,100.00
2019-05-18T05:09:36.440Z,100.00
2019-05-18T05:12:05.936Z,100.00
2019-05-18T05:14:35.276Z,100.00
2019-05-18T05:17:04.622Z,100.00
2019-05-18T05:19:33.965Z,100.00
2019-05-18T05:22:03.322Z,100.00
2019-05-18T05:24:32.871Z,100.00
2019-05-18T05:27:02.213Z,100.00
2019-05-18T05:29:31.574Z,100.00
2019-05-18T05:32:00.907Z,100.00
2019-05-18T05:34:30.237Z,100.00
2019-05-18T05:36:59.616Z,100.00
2019-05-18T05:39:28.948Z,100.00
2019-05-18T05:41:58.282Z,100.00
2019-05-18T05:44:27.640Z,100.00
2019-05-18T05:46:56.975Z,100.00
2019-05-18T05:49:26.382Z,100.00
2019-05-18T05:51:55.732Z,100.00
2019-05-18T05:54:25.069Z,100.00
2019-05-18T05:56:54.404Z,100.00
2019-05-18T05:59:23.760Z,100.00
2019-05-18T06:01:53.100Z,100.00
2019-05-18T06:04:22.437Z,100.00
2019-05-18T06:06:51.788Z,100.00
2019-05-18T06:09:21.131Z,100.00
2019-05-18T06:11:50.473Z,100.00
2019-05-18T06:14:19.871Z,100.00
2019-05-18T06:16:49.538Z,100.00
2019-05-18T06:19:18.875Z,100.00
2019-05-18T06:21:48.330Z,100.00
2019-05-18T06:24:17.682Z,100.00
2019-05-18T06:26:47.054Z,99.03
2019-05-18T06:29:16.388Z,99.03
2019-05-18T06:31:45.774Z,100.00
2019-05-18T06:34:15.099Z,99.65
2019-05-18T06:36:44.438Z,100.00
2019-05-18T06:39:13.776Z,100.00
2019-05-18T06:41:43.128Z,97.62
2019-05-18T06:44:12.453Z,99.96
2019-05-18T06:46:41.786Z,99.96
2019-05-18T06:49:11.131Z,98.40
2019-05-18T06:51:40.462Z,98.40
2019-05-18T06:54:09.863Z,99.62
2019-05-18T06:56:40.447Z,99.25
2019-05-18T06:59:10.518Z,98.49
2019-05-18T07:01:39.868Z,99.64
2019-05-18T07:04:09.484Z,99.93
2019-05-18T07:06:38.816Z,97.99
2019-05-18T07:09:13.784Z,98.17
2019-05-18T07:11:39.750Z,99.41
2019-05-18T07:14:09.195Z,97.30
2019-05-18T07:16:38.932Z,97.30
2019-05-18T07:19:08.277Z,97.99
2019-05-18T07:21:37.618Z,96.43
2019-05-18T07:24:06.968Z,94.41
2019-05-18T07:26:36.665Z,94.18
2019-05-18T07:29:07.881Z,96.26
2019-05-18T07:31:37.476Z,98.17
2019-05-18T07:34:06.785Z,98.53
2019-05-18T07:36:36.125Z,97.14
2019-05-18T07:39:06.893Z,97.71
2019-05-18T07:41:46.238Z,100.00
2019-05-18T07:44:07.599Z,98.50
2019-05-18T07:46:36.949Z,100.00
2019-05-18T07:49:06.291Z,100.00
2019-05-18T07:51:37.366Z,98.84
2019-05-18T07:54:06.876Z,100.00
2019-05-18T07:56:36.221Z,100.00
2019-05-18T07:59:05.557Z,97.57
2019-05-18T08:01:34.888Z,98.45
2019-05-18T08:04:04.277Z,99.00
2019-05-18T08:06:34.067Z,97.33
2019-05-18T08:09:04.800Z,94.08
2019-05-18T08:11:34.133Z,94.41
2019-05-18T08:14:03.487Z,98.54
2019-05-18T08:16:32.812Z,98.74
2019-05-18T08:19:02.156Z,94.41
2019-05-18T08:21:31.519Z,95.19
2019-05-18T08:24:00.848Z,91.27
2019-05-18T08:26:30.181Z,89.31
2019-05-18T08:28:59.517Z,92.49
2019-05-18T08:31:31.128Z,92.29
2019-05-18T08:34:07.104Z,93.47
2019-05-18T08:36:36.568Z,95.45
2019-05-18T08:39:06.514Z,95.57
2019-05-18T08:41:35.890Z,95.58
2019-05-18T08:44:05.288Z,95.15
2019-05-18T08:46:34.623Z,94.75
2019-05-18T08:49:04.039Z,96.82
2019-05-18T08:51:34.455Z,91.98
2019-05-18T08:54:03.810Z,90.92
2019-05-18T08:56:33.136Z,93.82
2019-05-18T08:59:02.485Z,94.13
2019-05-18T09:01:31.824Z,90.23
2019-05-18T09:04:01.177Z,93.68
2019-05-18T09:06:30.574Z,94.74
2019-05-18T09:09:00.228Z,93.86
2019-05-18T09:11:29.728Z,92.96
2019-05-18T09:13:59.068Z,94.54
2019-05-18T09:16:28.422Z,94.04
2019-05-18T09:18:57.755Z,91.21
2019-05-18T09:21:27.102Z,92.15
2019-05-18T09:23:56.428Z,91.81
2019-05-18T09:26:25.711Z,92.20
2019-05-18T09:28:55.040Z,78.72
2019-05-18T09:31:24.369Z,80.25
2019-05-18T09:33:53.719Z,81.73
2019-05-18T09:36:23.117Z,82.27
2019-05-18T09:38:52.477Z,81.56
2019-05-18T09:41:22.046Z,76.82
2019-05-18T09:43:51.409Z,75.12
2019-05-18T09:46:20.717Z,78.37
2019-05-18T09:48:50.051Z,75.29
2019-05-18T09:51:19.391Z,71.35
2019-05-18T09:53:51.648Z,73.44
2019-05-18T09:56:38.858Z,73.25
2019-05-18T09:59:08.206Z,76.79
2019-05-18T10:01:37.544Z,75.15
2019-05-18T10:04:06.888Z,76.22
2019-05-18T10:06:36.218Z,74.08
2019-05-18T10:09:08.106Z,78.64
2019-05-18T10:11:38.603Z,73.92
2019-05-18T10:14:08.247Z,70.27
2019-05-18T10:16:37.576Z,71.47
2019-05-18T10:19:06.912Z,76.75
2019-05-18T10:21:36.260Z,77.62
2019-05-18T10:24:05.596Z,74.85
2019-05-18T10:26:35.202Z,75.23
2019-05-18T10:29:04.614Z,73.98
2019-05-18T10:31:33.943Z,77.19
2019-05-18T10:34:03.393Z,77.69
2019-05-18T10:36:32.738Z,71.97
2019-05-18T10:39:02.327Z,72.03
2019-05-18T10:41:31.931Z,71.16
2019-05-18T10:44:01.276Z,68.65
2019-05-18T10:46:30.605Z,72.45
2019-05-18T10:48:59.935Z,70.59
2019-05-18T10:51:29.279Z,70.93
2019-05-18T10:53:58.618Z,69.11
2019-05-18T10:56:31.124Z,67.65
2019-05-18T10:58:58.996Z,72.63
2019-05-18T11:01:28.331Z,70.43
2019-05-18T11:03:57.663Z,74.12
2019-05-18T11:06:27.016Z,66.93
2019-05-18T11:08:56.344Z,67.11
2019-05-18T11:11:25.677Z,69.12
2019-05-18T11:13:55.040Z,67.42
2019-05-18T11:16:24.353Z,67.51
2019-05-18T11:18:53.689Z,68.30
2019-05-18T11:21:23.033Z,64.24
2019-05-18T11:23:52.375Z,64.31
2019-05-18T11:26:21.700Z,61.55
2019-05-18T11:28:51.046Z,62.64
2019-05-18T11:31:20.700Z,63.81
2019-05-18T11:33:50.031Z,62.56
2019-05-18T11:36:19.472Z,62.17
2019-05-18T11:38:48.875Z,65.38
2019-05-18T11:41:18.207Z,66.84
2019-05-18T11:43:47.553Z,67.94
2019-05-18T11:46:16.885Z,65.77
2019-05-18T11:48:46.223Z,62.95
2019-05-18T11:51:15.571Z,63.67
2019-05-18T11:53:57.460Z,62.16
2019-05-18T11:56:15.928Z,61.15
2019-05-18T11:58:45.276Z,61.01
2019-05-18T12:01:14.609Z,64.63
2019-05-18T12:03:43.946Z,63.87
2019-05-18T12:06:13.298Z,67.37
2019-05-18T12:08:42.636Z,62.75
2019-05-18T12:11:11.968Z,61.72
2019-05-18T12:13:41.571Z,60.62
2019-05-18T12:16:10.907Z,61.11
2019-05-18T12:18:40.234Z,63.43
2019-05-18T12:21:10.021Z,63.81
2019-05-18T12:23:39.339Z,64.88
2019-05-18T12:26:08.672Z,61.26
2019-05-18T12:28:38.075Z,63.74
2019-05-18T12:31:07.413Z,63.99
2019-05-18T12:33:36.747Z,62.88
2019-05-18T12:36:07.836Z,60.27
2019-05-18T12:38:37.181Z,60.14
2019-05-18T12:41:06.520Z,58.40
2019-05-18T12:43:35.994Z,56.61
2019-05-18T12:46:05.281Z,59.29
2019-05-18T12:48:34.998Z,61.70
2019-05-18T12:51:04.374Z,62.15
2019-05-18T12:53:33.707Z,61.54
2019-05-18T12:56:03.047Z,63.00
2019-05-18T12:58:32.375Z,65.13
2019-05-18T13:01:01.782Z,65.12
2019-05-18T13:03:31.055Z,62.95
2019-05-18T13:06:00.943Z,61.60
2019-05-18T13:08:30.289Z,65.81
2019-05-18T13:10:59.623Z,61.93
2019-05-18T13:13:28.979Z,59.35
2019-05-18T13:15:58.323Z,62.17
2019-05-18T13:18:29.360Z,64.56
2019-05-18T13:20:58.704Z,64.56
2019-05-18T13:23:28.034Z,67.65
2019-05-18T13:25:57.368Z,68.47
2019-05-18T13:28:26.775Z,62.23
2019-05-18T13:30:56.693Z,62.58
2019-05-18T13:33:26.401Z,62.86
2019-05-18T13:35:56.213Z,64.37
2019-05-18T13:38:25.530Z,63.78
2019-05-18T13:40:56.701Z,62.08
2019-05-18T13:43:26.091Z,60.65
2019-05-18T13:45:55.432Z,59.25
2019-05-18T13:48:24.746Z,58.95
2019-05-18T13:50:54.064Z,56.89
2019-05-18T13:53:23.399Z,57.31
2019-05-18T13:55:52.730Z,63.49
2019-05-18T13:58:23.707Z,80.86
2019-05-18T14:00:53.365Z,89.11
2019-05-18T14:03:22.685Z,87.62
2019-05-18T14:05:52.017Z,88.66
2019-05-18T14:08:21.335Z,90.52
2019-05-18T14:10:50.658Z,91.71
2019-05-18T14:13:19.996Z,91.14
2019-05-18T14:15:49.327Z,93.43
2019-05-18T14:18:18.654Z,92.46
2019-05-18T14:20:47.985Z,91.26
2019-05-18T14:23:17.308Z,90.77
2019-05-18T14:25:46.629Z,90.70
2019-05-18T14:28:15.978Z,91.14
2019-05-18T14:30:45.367Z,91.58
2019-05-18T14:33:14.691Z,91.20
2019-05-18T14:35:44.017Z,91.29
2019-05-18T14:38:13.349Z,90.77
2019-05-18T14:40:42.673Z,95.57
2019-05-18T14:43:12.282Z,92.62
2019-05-18T14:45:41.899Z,94.97
2019-05-18T14:48:11.226Z,98.08
2019-05-18T14:50:40.639Z,100.00
2019-05-18T14:53:09.948Z,100.00
2019-05-18T14:55:39.584Z,100.00
2019-05-18T14:58:08.931Z,100.00
2019-05-18T15:00:39.512Z,100.00
2019-05-18T15:03:10.586Z,100.00
2019-05-18T15:05:39.914Z,100.00
2019-05-18T15:08:09.912Z,100.00
2019-05-18T15:10:39.252Z,100.00
2019-05-18T15:13:08.578Z,100.00
2019-05-18T15:15:37.918Z,100.00
2019-05-18T15:18:07.312Z,100.00
2019-05-18T15:20:36.592Z,100.00
2019-05-18T15:23:05.915Z,100.00
2019-05-18T15:25:49.616Z,100.00
2019-05-18T15:28:06.531Z,100.00
2019-05-18T15:30:35.931Z,100.00
2019-05-18T15:33:05.301Z,100.00
2019-05-18T15:35:34.599Z,100.00
2019-05-18T15:38:03.929Z,100.00
2019-05-18T15:40:33.296Z,100.00
2019-05-18T15:43:02.598Z,100.00
2019-05-18T15:45:31.925Z,100.00
2019-05-18T15:48:01.329Z,100.00
2019-05-18T15:50:30.984Z,100.00
2019-05-18T15:53:00.331Z,100.00
2019-05-18T15:55:29.668Z,100.00
2019-05-18T15:57:59.003Z,100.00
2019-05-18T16:00:28.418Z,100.00
2019-05-18T16:02:57.988Z,100.00
2019-05-18T16:05:27.341Z,100.00
2019-05-18T16:07:56.675Z,100.00
2019-05-18T16:10:26.147Z,100.00
2019-05-18T16:12:55.489Z,100.00
2019-05-18T16:15:24.899Z,100.00
2019-05-18T16:17:54.244Z,100.00
2019-05-18T16:20:23.955Z,96.93
2019-05-18T16:22:53.333Z,99.47
2019-05-18T16:28:24.926Z,87.63
2019-05-18T16:30:54.269Z,94.95
2019-05-18T16:33:23.593Z,99.62
2019-05-18T16:35:52.931Z,100.00
2019-05-18T16:38:22.260Z,100.00
2019-05-18T16:40:51.955Z,100.00
2019-05-18T16:43:21.275Z,100.00
2019-05-18T16:45:50.639Z,100.00
2019-05-18T16:48:19.969Z,100.00
2019-05-18T16:50:49.317Z,100.00
2019-05-18T16:53:18.883Z,100.00
2019-05-18T16:55:48.240Z,100.00
2019-05-18T16:58:17.595Z,100.00
2019-05-18T17:00:46.909Z,99.73
2019-05-18T17:03:16.240Z,98.95
2019-05-18T17:05:45.578Z,98.44
2019-05-18T17:08:14.898Z,97.46
2019-05-18T17:10:44.235Z,94.84
2019-05-18T17:13:13.570Z,99.02
2019-05-18T17:18:57.993Z,95.69
2019-05-18T17:21:27.336Z,94.92
2019-05-18T17:23:56.694Z,96.01
2019-05-18T17:26:26.253Z,98.00
2019-05-18T17:28:55.648Z,96.75
2019-05-18T17:31:24.984Z,96.66
2019-05-18T17:33:54.306Z,98.06
2019-05-18T17:36:23.899Z,95.39
2019-05-18T17:39:12.314Z,91.99
2019-05-18T17:41:41.652Z,87.19
2019-05-18T17:44:10.979Z,84.76
2019-05-18T17:46:40.305Z,88.09
2019-05-18T17:49:24.624Z,82.85
2019-05-18T17:51:50.234Z,88.73
2019-05-18T17:54:19.559Z,84.27
2019-05-18T17:57:07.550Z,82.17
2019-05-18T17:59:25.568Z,80.62
2019-05-18T18:01:54.889Z,85.75
2019-05-18T18:04:24.213Z,85.09
2019-05-18T18:06:53.565Z,81.09
2019-05-18T18:09:22.894Z,80.00
2019-05-18T18:11:52.233Z,82.30
2019-05-18T18:14:21.556Z,80.83
2019-05-18T18:16:50.878Z,85.12
2019-05-18T18:19:20.213Z,88.37
2019-05-18T18:21:49.538Z,91.65
2019-05-18T18:24:18.871Z,93.64
2019-05-18T18:26:48.190Z,94.67
2019-05-18T18:29:17.538Z,93.79
2019-05-18T18:31:46.865Z,97.25
2019-05-18T18:34:16.206Z,97.62
2019-05-18T18:36:45.544Z,98.47
2019-05-18T18:39:14.876Z,99.97
2019-05-18T18:41:44.224Z,100.00
2019-05-18T18:44:13.550Z,99.55
2019-05-18T18:46:42.945Z,100.00
2019-05-18T18:49:12.286Z,100.00
2019-05-18T18:51:41.626Z,100.00
2019-05-18T18:54:12.786Z,100.00
2019-05-18T18:57:01.088Z,100.00
2019-05-18T18:59:30.435Z,100.00
2019-05-18T19:01:59.769Z,100.00
2019-05-18T19:04:41.381Z,100.00
2019-05-18T19:07:10.714Z,100.00
2019-05-18T19:09:40.049Z,100.00
2019-05-18T19:12:09.398Z,100.00
2019-05-18T19:14:38.723Z,100.00
2019-05-18T19:17:08.070Z,100.00
2019-05-18T19:19:40.157Z,100.00
2019-05-18T19:22:13.727Z,100.00
2019-05-18T19:24:43.064Z,100.00
2019-05-18T19:27:12.408Z,100.00
2019-05-18T19:29:41.744Z,100.00
2019-05-18T19:32:11.077Z,100.00
2019-05-18T19:34:40.432Z,100.00
2019-05-18T19:37:09.775Z,100.00
2019-05-18T19:39:58.456Z,100.00
2019-05-18T19:42:35.120Z,100.00
2019-05-18T19:48:05.915Z,100.00
2019-05-18T19:50:47.693Z,100.00
2019-05-18T19:53:17.063Z,100.00
2019-05-18T19:56:05.725Z,100.00
2019-05-18T19:58:35.091Z,100.00
2019-05-18T20:01:04.447Z,100.00
2019-05-18T20:03:33.786Z,100.00
2019-05-18T20:12:07.012Z,100.00
2019-05-18T20:14:36.353Z,99.05
2019-05-18T20:17:05.717Z,98.52
2019-05-18T20:19:39.110Z,98.21
2019-05-18T20:22:15.488Z,99.26
2019-05-18T20:24:45.063Z,98.98
2019-05-18T20:27:14.382Z,99.24
2019-05-18T20:29:43.723Z,100.00
2019-05-18T20:32:13.048Z,99.89
2019-05-18T20:34:42.703Z,100.00
2019-05-18T20:37:12.311Z,100.00
2019-05-18T20:39:41.647Z,100.00
2019-05-18T20:42:10.982Z,99.88
2019-05-18T20:44:40.299Z,99.92
2019-05-18T20:47:09.630Z,99.26
2019-05-18T20:49:38.962Z,99.13
2019-05-18T20:52:08.508Z,99.71
2019-05-18T20:54:37.831Z,99.42
2019-05-18T20:57:07.166Z,98.94
2019-05-18T20:59:55.848Z,100.00
2019-05-18T21:02:25.211Z,100.00
2019-05-18T21:04:54.794Z,100.00
2019-05-18T21:07:24.118Z,100.00
2019-05-18T21:09:53.467Z,100.00
2019-05-18T21:12:34.968Z,100.00
2019-05-18T21:15:16.148Z,100.00
2019-05-18T21:17:45.481Z,100.00
2019-05-18T21:20:14.829Z,100.00
2019-05-18T21:22:44.168Z,100.00
2019-05-18T21:25:13.510Z,100.00
2019-05-18T21:27:42.859Z,100.00
2019-05-18T21:33:46.200Z,100.00
2019-05-18T21:36:27.651Z,100.00
2019-05-18T21:38:56.997Z,100.00
2019-05-18T21:41:26.346Z,100.00
2019-05-18T21:43:55.681Z,100.00
2019-05-18T21:46:44.365Z,100.00
2019-05-18T21:49:13.697Z,100.00
2019-05-18T21:52:08.271Z,100.00
2019-05-18T21:54:39.282Z,100.00
2019-05-18T21:57:20.346Z,100.00
2019-05-18T21:59:49.681Z,100.00
2019-05-18T22:02:19.023Z,100.00
2019-05-18T22:05:00.277Z,100.00
2019-05-18T22:07:29.685Z,100.00
2019-05-18T22:09:59.335Z,100.00
2019-05-18T22:12:41.308Z,100.00
2019-05-18T22:15:23.599Z,100.00
2019-05-18T22:18:23.705Z,100.00
2019-05-18T22:21:08.555Z,100.00
2019-05-18T22:23:49.680Z,100.00
2019-05-18T22:26:19.031Z,100.00
2019-05-18T22:28:48.369Z,100.00
2019-05-18T22:31:29.719Z,100.00
2019-05-18T22:33:59.051Z,100.00
2019-05-18T22:36:28.389Z,100.00
2019-05-18T22:38:57.970Z,100.00
2019-05-18T22:41:27.306Z,100.00
2019-05-18T22:43:56.648Z,100.00
2019-05-18T22:46:25.984Z,100.00
2019-05-18T22:48:55.340Z,100.00
2019-05-18T22:51:24.673Z,100.00
2019-05-18T22:53:54.081Z,100.00
2019-05-18T22:56:23.431Z,100.00
2019-05-18T22:58:52.771Z,100.00
2019-05-18T23:01:22.133Z,100.00
2019-05-18T23:03:51.855Z,100.00
2019-05-18T23:06:21.187Z,100.00
2019-05-18T23:08:50.529Z,100.00
2019-05-18T23:11:19.889Z,100.00
2019-05-18T23:13:49.208Z,100.00
2019-05-18T23:16:18.610Z,100.00
2019-05-18T23:18:56.360Z,100.00
2019-05-18T23:21:18.995Z,100.00
2019-05-18T23:23:48.346Z,100.00
2019-05-18T23:26:17.700Z,100.00
2019-05-18T23:28:47.038Z,100.00
2019-05-18T23:31:16.621Z,100.00
2019-05-18T23:33:45.958Z,100.00
2019-05-18T23:36:15.324Z,100.00
2019-05-18T23:38:44.656Z,100.00
2019-05-18T23:41:13.993Z,100.00
2019-05-18T23:43:43.422Z,100.00
2019-05-18T23:46:12.748Z,100.00
2019-05-18T23:48:42.334Z,100.00
2019-05-18T23:51:11.668Z,100.00
2019-05-18T23:53:41.001Z,100.00
2019-05-18T23:56:10.452Z,100.00
2019-05-18T23:58:39.794Z,100.00
